Iola, Wisconsin
Current Conditions -  °F | °C
As of 3:55 PM on Monday 22 Dec 2014 (Local Time) from KPCZ Reporting Station
Haze Haze  
Wind Chill: 31°   Ceiling: 1400
Heat Index: 38°   Visibility: 4mi
Dew Point: 32°   Wind: 9mph
Humidity: 80%   Direction: 100°E
Pressure: 29.76"   Gusts: NA
Location:  44.51°N, 89.13°W
Report Text: KPCZ 222155Z AUTO 10008KT 4SM HZ OVC014 03/00 A2976 RMK AO2 T00310000
Loading
Personal Weather Stations






























Interactive Weather Map New forecast layout! Learn more

10-Day Weather Forecast

Advertisements
Track Severe Weather on mobile